ADDS METAR Data INFO
IDs: Format: Raw Decoded Include TAF

Data at: 1148 UTC 25 Jun 2018

KLBX 251053Z AUTO 17010KT 10SM FEW022 BKN029 28/24 A2995 RMK AO2 SLP142 T02780239
KLBX 251029Z AUTO 17013KT 10SM FEW023 BKN029 28/24 A2994 RMK AO2 T02780239
KLBX 250953Z AUTO 16015KT 10SM FEW023 OVC033 28/24 A2993 RMK AO2 SLP136 T02780239
KLBX 250920Z AUTO 16016KT 10SM SCT022 SCT026 OVC033 28/24 A2993 RMK AO2 T02830239
KLBX 250853Z AUTO 16010KT 10SM SCT021 BKN028 28/24 A2993 RMK AO2 SLP136 T02780239 58007
KLBX 250753Z AUTO 15010KT 10SM FEW030 28/23 A2994 RMK AO2 SLP139 T02780233
KLBX 250653Z AUTO 15013G19KT 10SM CLR 28/24 A2995 RMK AO2 SLP140 T02830239
KLBX 250553Z AUTO 16014G21KT 10SM CLR 28/24 A2995 RMK AO2 SLP143 T02830239 10300 20278 403330267 50010
KLBX 250453Z AUTO 15014KT 10SM BKN036 28/24 A2996 RMK AO2 SLP144 T02830239
KLBX 250419Z AUTO 14007KT 10SM SCT026 BKN032 28/24 A2995 RMK AO2 T02780239
KLBX 250353Z AUTO 16007KT 10SM BKN024 BKN031 28/23 A2994 RMK AO2 SLP139 T02780233
KLBX 250253Z AUTO 16008KT 10SM SCT025 28/23 A2992 RMK AO2 SLP133 T02780233 53010
KLBX 250216Z AUTO 15008KT 10SM BKN022 28/24 A2992 RMK AO2 T02830239
KLBX 250153Z AUTO 15008KT 10SM FEW022 28/24 A2990 RMK AO2 SLP126 T02830239
KLBX 250053Z AUTO 16011KT 10SM FEW025 29/23 A2990 RMK AO2 SLP123 T02890233
KLBX 242353Z AUTO 16012KT 10SM FEW027 30/23 A2989 RMK AO2 SLP122 60000 T03000233 10333 20294 55007
KLBX 242253Z AUTO 14013KT 10SM SCT026 SCT046 31/24 A2988 RMK AO2 SLP119 T03110244
KLBX 242153Z AUTO 16014KT 10SM FEW032 32/24 A2991 RMK AO2 SLP126 T03220239
KLBX 242053Z AUTO 15015G24KT 10SM SCT032 32/24 A2992 RMK AO2 SLP130 60000 T03220239 58012
KLBX 241953Z AUTO 17017KT 10SM FEW032 32/24 A2993 RMK AO2 SLP133 T03220239
KLBX 241853Z AUTO 18018G23KT 10SM FEW055 33/23 A2994 RMK AO2 LTG DSNT E RAE03 SLP138 P0000 T03280233
KLBX 241753Z AUTO 19013KT 10SM -RA FEW026 BKN032 OVC075 29/24 A2995 RMK AO2 RAB45 SLP141 P0000 60000 T02940244 10328 20272 53014
KLBX 241653Z AUTO 18014KT 10SM FEW030 SCT035 32/24 A2993 RMK AO2 SLP136 T03170244
KLBX 241639Z AUTO 17018G23KT 10SM SCT028 BKN038 BKN044 32/24 A2994 RMK AO2 T03220244
KLBX 241625Z AUTO 19016G22KT 10SM BKN028 BKN034 OVC049 32/24 A2993 RMK AO2 T03170244
KLBX 241553Z AUTO 18017KT 10SM FEW028 SCT041 32/24 A2991 RMK AO2 SLP129 T03170239
KLBX 241521Z AUTO 17014G20KT 10SM SCT026 BKN035 31/24 A2991 RMK AO2 T03110244
KLBX 241453Z AUTO 20011G17KT 10SM BKN024 OVC033 31/25 A2991 RMK AO2 SLP127 T03110250 53006
KLBX 241450Z AUTO 20009KT 10SM BKN024 BKN030 OVC037 31/24 A2990 RMK AO2
KLBX 241353Z AUTO 17014G20KT 10SM FEW024 30/24 A2989 RMK AO2 SLP120 T03000244
KLBX 241253Z AUTO 18015G20KT 10SM FEW026 FEW036 29/25 A2989 RMK AO2 SLP121 T02890250
KLBX 241225Z AUTO 18009KT 10SM FEW021 SCT026 BKN032 28/25 A2989 RMK AO2 T02830250
KLBX 241211Z AUTO 20007KT 10SM BKN024 BKN030 28/25 A2989 RMK AO2 T02780250
KLBX 241153Z AUTO 19007KT 10SM SCT024 27/25 A2988 RMK AO2 SLP119 T02720250 10278 20267 53001
KLBX 241111Z AUTO 18009KT 10SM FEW020 28/25 A2988 RMK AO2 T02780250
KLBX 241053Z AUTO 18008KT 10SM BKN020 BKN027 28/25 A2988 RMK AO2 SLP118 T02780250
KLBX 241020Z AUTO 18009KT 10SM FEW017 BKN024 BKN029 27/25 A2987 RMK AO2 T02720250
KLBX 240953Z AUTO 19007KT 10SM FEW023 27/25 A2988 RMK AO2 SLP117 T02720250
KLBX 240944Z AUTO 18008KT 10SM FEW021 SCT027 27/25 A2988 RMK AO2 T02720250
KLBX 240853Z AUTO 18009KT 10SM SCT018 BKN027 BKN041 27/25 A2988 RMK AO2 SLP118 T02720250 56008
KLBX 240851Z AUTO 18009KT 10SM SCT018 BKN027 BKN041 27/25 A2988 RMK AO2
KLBX 240753Z AUTO 18009KT 10SM CLR 27/24 A2990 RMK AO2 SLP123 T02720244
KLBX 240653Z AUTO 19010KT 10SM CLR 27/24 A2990 RMK AO2 SLP126 T02720244
KLBX 240553Z AUTO 17012KT 10SM CLR 28/24 A2989 RMK AO2 SLP120 T02780244 10300 20278 403280250 51014
KLBX 240453Z AUTO 17010KT 10SM FEW021 28/24 A2987 RMK AO2 SLP115 T02780244
KLBX 240353Z AUTO 16012KT 10SM FEW022 28/24 A2986 RMK AO2 SLP111 T02780244
KLBX 240253Z AUTO 17011G18KT 10SM CLR 28/24 A2984 RMK AO2 SLP105 T02780244 53005
KLBX 240153Z AUTO 16013KT 10SM FEW020 28/25 A2983 RMK AO2 SLP100 T02830250
KLBX 240053Z AUTO 17012KT 10SM CLR 29/24 A2983 RMK AO2 SLP102 T02890244
KLBX 232353Z AUTO 17013KT 10SM FEW024 FEW032 29/24 A2983 RMK AO2 SLP100 T02940244 10328 20294 56010